Forside
METAR-TAF:

METAR-TAF

Lufthavne :

Cairo International Airport

Kairo, Egypten

Breddekreds: 30-08N, længdekreds: 031-24E, højde: 64 m

Aktuelle vejr

Denne rapport blev lavet for 33 minutter siden, kl. 18:30 UTC
Vind 19 kt fra nordnordøst
Temperatur 29°C
Fugtighed 62%
Tryk 1012 hPa
Sigt 10 km eller mere
ingen skyer under 1500m og ingen cumulonimbus

METAR: HECA 221830Z 03019KT CAVOK 29/21 Q1012 NOSIG

Tid: 21:03 (19:03 UTC)

Vejrudsigter

Denne rapport blev lavet for 2 timer og 3 minutter siden, kl. 17:00 UTC
Foreløbig gælder fra 22 på 18 UTC til 23 på 24 UTC
Vind 14 kt fra nordnordøst
Sigt 10 km eller mere
ingen skyer under 1500m og ingen cumulonimbus
Midlertidig
fra 23 på 02 UTC til 23 på 06 UTC
Vind 8 kt fra nordøst

TAF: HECA 221700Z 2218/2324 02014KT CAVOK TEMPO 2302/2306 04008KT 4000HZ NSC

Vejrobservationer og prognoser fra mere end 4000 lufthavne (METAR og TAF).

De gule og røde prikker repræsenterer de meteorologiske stationer.

Flyt musen over at se navnet på stationen.

Så klik over at se vejr observationer og prognoser.

At skifte det kort: Klik på de grønne knapper med et sort kors for at zoome ind; på den grønne knap med en bindestreg for at zoome ud; eller på de grønne pile for tilstødende kort.


METAR-TAF: